sensor_id;sensor_type;location;lat;lon;timestamp;P1;durP1;ratioP1;P2;durP2;ratioP2
55483;SDS011;41345;51.704;5.146;2023-04-25T00:00:43;69.97;;;65.10;;
55483;SDS011;41345;51.704;5.146;2023-04-25T00:05:43;67.18;;;63.00;;
55483;SDS011;41345;51.704;5.146;2023-04-25T00:10:44;68.43;;;63.97;;
55483;SDS011;41345;51.704;5.146;2023-04-25T00:15:44;68.53;;;63.85;;
55483;SDS011;41345;51.704;5.146;2023-04-25T00:20:46;70.78;;;66.45;;
55483;SDS011;41345;51.704;5.146;2023-04-25T00:25:47;75.05;;;70.50;;
55483;SDS011;41345;51.704;5.146;2023-04-25T00:30:47;73.53;;;67.90;;
55483;SDS011;41345;51.704;5.146;2023-04-25T00:35:48;61.63;;;57.35;;
55483;SDS011;41345;51.704;5.146;2023-04-25T00:40:48;59.40;;;55.90;;
55483;SDS011;41345;51.704;5.146;2023-04-25T00:45:48;62.03;;;58.03;;
55483;SDS011;41345;51.704;5.146;2023-04-25T00:50:52;66.97;;;62.08;;
55483;SDS011;41345;51.704;5.146;2023-04-25T00:55:53;69.57;;;64.88;;
55483;SDS011;41345;51.704;5.146;2023-04-25T01:00:54;72.72;;;67.53;;
55483;SDS011;41345;51.704;5.146;2023-04-25T01:05:56;74.25;;;69.47;;
55483;SDS011;41345;51.704;5.146;2023-04-25T01:10:56;72.35;;;67.60;;
55483;SDS011;41345;51.704;5.146;2023-04-25T01:15:57;69.30;;;64.32;;
55483;SDS011;41345;51.704;5.146;2023-04-25T01:21:02;72.60;;;67.82;;
55483;SDS011;41345;51.704;5.146;2023-04-25T01:26:02;69.50;;;65.05;;
55483;SDS011;41345;51.704;5.146;2023-04-25T01:31:03;66.35;;;61.55;;
55483;SDS011;41345;51.704;5.146;2023-04-25T01:36:04;67.85;;;63.65;;
55483;SDS011;41345;51.704;5.146;2023-04-25T01:41:04;68.43;;;64.00;;
55483;SDS011;41345;51.704;5.146;2023-04-25T01:46:05;67.72;;;63.58;;
55483;SDS011;41345;51.704;5.146;2023-04-25T01:51:05;65.03;;;60.72;;
55483;SDS011;41345;51.704;5.146;2023-04-25T01:56:06;66.50;;;61.92;;
55483;SDS011;41345;51.704;5.146;2023-04-25T02:01:06;61.60;;;57.65;;
55483;SDS011;41345;51.704;5.146;2023-04-25T02:06:07;67.65;;;62.53;;
55483;SDS011;41345;51.704;5.146;2023-04-25T02:11:07;70.30;;;65.38;;
55483;SDS011;41345;51.704;5.146;2023-04-25T02:16:07;70.82;;;65.32;;
55483;SDS011;41345;51.704;5.146;2023-04-25T02:21:08;73.28;;;67.95;;
55483;SDS011;41345;51.704;5.146;2023-04-25T02:26:08;69.13;;;64.00;;
55483;SDS011;41345;51.704;5.146;2023-04-25T02:31:08;69.43;;;64.90;;
55483;SDS011;41345;51.704;5.146;2023-04-25T02:36:09;67.90;;;63.28;;
55483;SDS011;41345;51.704;5.146;2023-04-25T02:41:09;73.72;;;68.50;;
55483;SDS011;41345;51.704;5.146;2023-04-25T02:46:10;74.10;;;68.28;;
55483;SDS011;41345;51.704;5.146;2023-04-25T02:51:10;71.72;;;66.63;;
55483;SDS011;41345;51.704;5.146;2023-04-25T02:56:10;72.85;;;68.07;;
55483;SDS011;41345;51.704;5.146;2023-04-25T03:01:11;74.53;;;69.17;;
55483;SDS011;41345;51.704;5.146;2023-04-25T03:06:11;69.07;;;63.70;;
55483;SDS011;41345;51.704;5.146;2023-04-25T03:11:11;70.03;;;64.93;;
55483;SDS011;41345;51.704;5.146;2023-04-25T03:16:12;69.95;;;65.30;;
55483;SDS011;41345;51.704;5.146;2023-04-25T03:21:12;69.87;;;65.30;;
55483;SDS011;41345;51.704;5.146;2023-04-25T03:26:12;69.00;;;64.07;;
55483;SDS011;41345;51.704;5.146;2023-04-25T03:31:13;70.37;;;65.80;;
55483;SDS011;41345;51.704;5.146;2023-04-25T03:36:13;68.25;;;63.53;;
55483;SDS011;41345;51.704;5.146;2023-04-25T03:41:14;62.42;;;57.85;;
55483;SDS011;41345;51.704;5.146;2023-04-25T03:46:14;67.75;;;63.13;;
55483;SDS011;41345;51.704;5.146;2023-04-25T03:51:14;64.53;;;60.00;;
55483;SDS011;41345;51.704;5.146;2023-04-25T03:56:15;63.17;;;59.00;;
55483;SDS011;41345;51.704;5.146;2023-04-25T04:01:16;65.88;;;60.65;;
55483;SDS011;41345;51.704;5.146;2023-04-25T04:06:16;63.97;;;59.53;;
55483;SDS011;41345;51.704;5.146;2023-04-25T04:11:16;65.05;;;60.40;;
55483;SDS011;41345;51.704;5.146;2023-04-25T04:16:17;64.63;;;60.55;;
55483;SDS011;41345;51.704;5.146;2023-04-25T04:21:18;65.65;;;61.42;;
55483;SDS011;41345;51.704;5.146;2023-04-25T04:26:18;69.00;;;64.67;;
55483;SDS011;41345;51.704;5.146;2023-04-25T04:31:22;68.60;;;63.83;;
55483;SDS011;41345;51.704;5.146;2023-04-25T04:36:23;64.88;;;60.58;;
55483;SDS011;41345;51.704;5.146;2023-04-25T04:41:26;66.57;;;62.45;;
55483;SDS011;41345;51.704;5.146;2023-04-25T04:46:26;65.87;;;61.60;;
55483;SDS011;41345;51.704;5.146;2023-04-25T04:51:27;68.07;;;63.30;;
55483;SDS011;41345;51.704;5.146;2023-04-25T04:56:28;67.93;;;63.07;;
55483;SDS011;41345;51.704;5.146;2023-04-25T05:01:30;61.67;;;57.38;;
55483;SDS011;41345;51.704;5.146;2023-04-25T05:06:31;63.17;;;58.70;;
55483;SDS011;41345;51.704;5.146;2023-04-25T05:11:33;62.25;;;57.60;;
55483;SDS011;41345;51.704;5.146;2023-04-25T05:16:33;65.78;;;61.78;;
55483;SDS011;41345;51.704;5.146;2023-04-25T05:21:34;63.10;;;59.17;;
55483;SDS011;41345;51.704;5.146;2023-04-25T05:26:35;57.20;;;52.53;;
55483;SDS011;41345;51.704;5.146;2023-04-25T05:31:35;48.17;;;44.88;;
55483;SDS011;41345;51.704;5.146;2023-04-25T05:36:36;50.08;;;46.58;;
55483;SDS011;41345;51.704;5.146;2023-04-25T05:41:36;37.05;;;34.22;;
55483;SDS011;41345;51.704;5.146;2023-04-25T05:46:37;42.75;;;39.90;;
55483;SDS011;41345;51.704;5.146;2023-04-25T05:51:37;31.10;;;28.60;;
55483;SDS011;41345;51.704;5.146;2023-04-25T05:56:37;35.00;;;32.38;;
55483;SDS011;41345;51.704;5.146;2023-04-25T06:01:38;23.43;;;21.13;;
55483;SDS011;41345;51.704;5.146;2023-04-25T06:06:38;31.63;;;29.35;;
55483;SDS011;41345;51.704;5.146;2023-04-25T06:11:38;28.30;;;26.13;;
55483;SDS011;41345;51.704;5.146;2023-04-25T06:16:39;26.93;;;24.93;;
55483;SDS011;41345;51.704;5.146;2023-04-25T06:21:39;18.20;;;16.33;;
55483;SDS011;41345;51.704;5.146;2023-04-25T06:26:39;17.67;;;13.45;;
55483;SDS011;41345;51.704;5.146;2023-04-25T06:31:40;23.50;;;21.40;;
55483;SDS011;41345;51.704;5.146;2023-04-25T06:36:40;23.05;;;20.60;;
55483;SDS011;41345;51.704;5.146;2023-04-25T06:41:41;15.57;;;13.93;;
55483;SDS011;41345;51.704;5.146;2023-04-25T06:46:41;22.65;;;20.67;;
55483;SDS011;41345;51.704;5.146;2023-04-25T06:51:42;12.32;;;10.20;;
55483;SDS011;41345;51.704;5.146;2023-04-25T06:56:42;12.32;;;7.15;;
55483;SDS011;41345;51.704;5.146;2023-04-25T07:01:42;11.50;;;5.40;;
55483;SDS011;41345;51.704;5.146;2023-04-25T07:06:43;15.60;;;13.75;;
55483;SDS011;41345;51.704;5.146;2023-04-25T07:11:43;12.48;;;10.23;;
55483;SDS011;41345;51.704;5.146;2023-04-25T07:16:43;14.13;;;10.50;;
55483;SDS011;41345;51.704;5.146;2023-04-25T07:21:44;14.38;;;9.15;;
55483;SDS011;41345;51.704;5.146;2023-04-25T07:26:44;11.27;;;7.53;;
55483;SDS011;41345;51.704;5.146;2023-04-25T07:31:44;12.00;;;7.63;;
55483;SDS011;41345;51.704;5.146;2023-04-25T07:36:45;13.55;;;5.75;;
55483;SDS011;41345;51.704;5.146;2023-04-25T07:41:45;12.13;;;5.13;;
55483;SDS011;41345;51.704;5.146;2023-04-25T07:46:46;12.70;;;7.40;;
55483;SDS011;41345;51.704;5.146;2023-04-25T07:51:46;10.60;;;5.68;;
55483;SDS011;41345;51.704;5.146;2023-04-25T07:56:46;12.70;;;5.80;;
55483;SDS011;41345;51.704;5.146;2023-04-25T08:01:47;12.63;;;8.83;;
55483;SDS011;41345;51.704;5.146;2023-04-25T08:06:47;12.20;;;5.88;;
55483;SDS011;41345;51.704;5.146;2023-04-25T08:11:48;12.00;;;10.10;;
55483;SDS011;41345;51.704;5.146;2023-04-25T08:16:48;9.23;;;6.82;;
55483;SDS011;41345;51.704;5.146;2023-04-25T08:21:49;17.55;;;9.35;;
55483;SDS011;41345;51.704;5.146;2023-04-25T08:26:50;14.35;;;2.90;;
55483;SDS011;41345;51.704;5.146;2023-04-25T08:31:51;10.70;;;4.20;;
55483;SDS011;41345;51.704;5.146;2023-04-25T08:36:52;13.18;;;3.75;;
55483;SDS011;41345;51.704;5.146;2023-04-25T08:41:53;14.02;;;4.05;;
55483;SDS011;41345;51.704;5.146;2023-04-25T08:46:53;13.60;;;2.77;;
55483;SDS011;41345;51.704;5.146;2023-04-25T08:51:55;11.43;;;4.18;;
55483;SDS011;41345;51.704;5.146;2023-04-25T08:56:57;16.45;;;2.63;;
55483;SDS011;41345;51.704;5.146;2023-04-25T09:01:58;12.45;;;2.33;;
55483;SDS011;41345;51.704;5.146;2023-04-25T09:06:58;12.03;;;2.23;;
55483;SDS011;41345;51.704;5.146;2023-04-25T09:11:58;10.00;;;2.05;;
55483;SDS011;41345;51.704;5.146;2023-04-25T09:17:00;7.93;;;1.40;;
55483;SDS011;41345;51.704;5.146;2023-04-25T09:22:02;9.73;;;1.60;;
55483;SDS011;41345;51.704;5.146;2023-04-25T09:27:03;6.88;;;1.40;;
55483;SDS011;41345;51.704;5.146;2023-04-25T09:32:20;7.07;;;1.38;;
55483;SDS011;41345;51.704;5.146;2023-04-25T09:37:21;8.48;;;1.63;;
55483;SDS011;41345;51.704;5.146;2023-04-25T09:42:25;6.25;;;1.27;;
55483;SDS011;41345;51.704;5.146;2023-04-25T09:52:28;6.47;;;1.20;;
55483;SDS011;41345;51.704;5.146;2023-04-25T09:57:28;8.17;;;1.57;;
55483;SDS011;41345;51.704;5.146;2023-04-25T10:02:29;5.95;;;1.17;;
55483;SDS011;41345;51.704;5.146;2023-04-25T10:07:30;5.20;;;1.58;;
55483;SDS011;41345;51.704;5.146;2023-04-25T10:12:32;8.43;;;1.63;;
55483;SDS011;41345;51.704;5.146;2023-04-25T10:17:32;7.78;;;1.88;;
55483;SDS011;41345;51.704;5.146;2023-04-25T10:22:37;12.23;;;1.95;;
55483;SDS011;41345;51.704;5.146;2023-04-25T10:27:39;2.47;;;1.00;;
55483;SDS011;41345;51.704;5.146;2023-04-25T10:32:39;6.70;;;1.45;;
55483;SDS011;41345;51.704;5.146;2023-04-25T10:43:33;4.20;;;0.98;;
55483;SDS011;41345;51.704;5.146;2023-04-25T10:48:27;8.90;;;2.10;;
55483;SDS011;41345;51.704;5.146;2023-04-25T10:53:30;8.52;;;1.85;;
55483;SDS011;41345;51.704;5.146;2023-04-25T10:58:30;9.50;;;1.52;;
55483;SDS011;41345;51.704;5.146;2023-04-25T11:03:32;6.72;;;1.33;;
55483;SDS011;41345;51.704;5.146;2023-04-25T11:08:48;5.33;;;1.00;;
55483;SDS011;41345;51.704;5.146;2023-04-25T11:13:48;8.27;;;1.30;;
55483;SDS011;41345;51.704;5.146;2023-04-25T11:18:49;6.60;;;1.80;;
55483;SDS011;41345;51.704;5.146;2023-04-25T11:23:50;6.80;;;0.90;;
55483;SDS011;41345;51.704;5.146;2023-04-25T11:28:50;6.00;;;1.07;;
55483;SDS011;41345;51.704;5.146;2023-04-25T11:33:52;6.95;;;0.98;;
55483;SDS011;41345;51.704;5.146;2023-04-25T11:38:53;4.03;;;0.85;;
55483;SDS011;41345;51.704;5.146;2023-04-25T11:43:53;5.32;;;1.30;;
55483;SDS011;41345;51.704;5.146;2023-04-25T11:48:54;5.40;;;1.05;;
55483;SDS011;41345;51.704;5.146;2023-04-25T11:53:55;8.15;;;1.10;;
55483;SDS011;41345;51.704;5.146;2023-04-25T11:58:56;6.32;;;1.20;;
55483;SDS011;41345;51.704;5.146;2023-04-25T12:03:57;9.55;;;1.33;;
55483;SDS011;41345;51.704;5.146;2023-04-25T12:09:01;5.90;;;1.13;;
55483;SDS011;41345;51.704;5.146;2023-04-25T12:14:02;6.25;;;1.23;;
55483;SDS011;41345;51.704;5.146;2023-04-25T12:19:02;6.25;;;1.30;;
55483;SDS011;41345;51.704;5.146;2023-04-25T12:24:14;7.40;;;1.30;;
55483;SDS011;41345;51.704;5.146;2023-04-25T12:29:19;8.43;;;1.67;;
55483;SDS011;41345;51.704;5.146;2023-04-25T12:34:21;7.60;;;1.38;;
55483;SDS011;41345;51.704;5.146;2023-04-25T12:39:22;12.38;;;1.73;;
55483;SDS011;41345;51.704;5.146;2023-04-25T12:44:22;8.75;;;1.52;;
55483;SDS011;41345;51.704;5.146;2023-04-25T12:49:22;7.35;;;1.42;;
55483;SDS011;41345;51.704;5.146;2023-04-25T12:54:23;7.03;;;1.55;;
55483;SDS011;41345;51.704;5.146;2023-04-25T12:59:23;10.48;;;2.00;;
55483;SDS011;41345;51.704;5.146;2023-04-25T13:04:24;9.38;;;1.90;;
55483;SDS011;41345;51.704;5.146;2023-04-25T13:09:24;6.10;;;1.17;;
55483;SDS011;41345;51.704;5.146;2023-04-25T13:14:24;5.43;;;1.08;;
55483;SDS011;41345;51.704;5.146;2023-04-25T13:19:25;7.63;;;1.35;;
55483;SDS011;41345;51.704;5.146;2023-04-25T13:24:26;6.47;;;1.30;;
55483;SDS011;41345;51.704;5.146;2023-04-25T13:29:26;10.70;;;1.40;;
55483;SDS011;41345;51.704;5.146;2023-04-25T13:34:26;4.97;;;0.93;;
55483;SDS011;41345;51.704;5.146;2023-04-25T13:39:26;4.65;;;1.10;;
55483;SDS011;41345;51.704;5.146;2023-04-25T13:44:27;8.27;;;1.60;;
55483;SDS011;41345;51.704;5.146;2023-04-25T13:49:27;8.77;;;1.30;;
55483;SDS011;41345;51.704;5.146;2023-04-25T13:54:27;5.45;;;1.10;;
55483;SDS011;41345;51.704;5.146;2023-04-25T13:59:28;3.70;;;1.67;;
55483;SDS011;41345;51.704;5.146;2023-04-25T14:04:28;5.13;;;0.93;;
55483;SDS011;41345;51.704;5.146;2023-04-25T14:09:28;8.77;;;1.40;;
55483;SDS011;41345;51.704;5.146;2023-04-25T14:14:29;8.35;;;1.30;;
55483;SDS011;41345;51.704;5.146;2023-04-25T14:19:29;6.30;;;1.25;;
55483;SDS011;41345;51.704;5.146;2023-04-25T14:24:30;3.72;;;1.08;;
55483;SDS011;41345;51.704;5.146;2023-04-25T14:29:30;5.82;;;1.08;;
55483;SDS011;41345;51.704;5.146;2023-04-25T14:34:30;6.73;;;1.20;;
55483;SDS011;41345;51.704;5.146;2023-04-25T14:39:31;7.43;;;1.30;;
55483;SDS011;41345;51.704;5.146;2023-04-25T14:44:31;6.38;;;1.70;;
55483;SDS011;41345;51.704;5.146;2023-04-25T14:49:32;7.60;;;1.27;;
55483;SDS011;41345;51.704;5.146;2023-04-25T14:54:32;7.05;;;1.40;;
55483;SDS011;41345;51.704;5.146;2023-04-25T14:59:32;7.63;;;1.80;;
55483;SDS011;41345;51.704;5.146;2023-04-25T15:04:33;7.93;;;1.55;;
55483;SDS011;41345;51.704;5.146;2023-04-25T15:09:33;5.03;;;1.10;;
55483;SDS011;41345;51.704;5.146;2023-04-25T15:14:33;4.18;;;1.00;;
55483;SDS011;41345;51.704;5.146;2023-04-25T15:19:34;4.57;;;1.13;;
55483;SDS011;41345;51.704;5.146;2023-04-25T15:24:34;7.07;;;1.40;;
55483;SDS011;41345;51.704;5.146;2023-04-25T15:29:35;5.35;;;1.20;;
55483;SDS011;41345;51.704;5.146;2023-04-25T15:34:35;7.63;;;1.55;;
55483;SDS011;41345;51.704;5.146;2023-04-25T15:39:36;7.43;;;1.35;;
55483;SDS011;41345;51.704;5.146;2023-04-25T15:44:36;11.10;;;1.40;;
55483;SDS011;41345;51.704;5.146;2023-04-25T15:49:36;9.40;;;1.65;;
55483;SDS011;41345;51.704;5.146;2023-04-25T15:54:37;5.77;;;1.47;;
55483;SDS011;41345;51.704;5.146;2023-04-25T15:59:37;6.83;;;1.30;;
55483;SDS011;41345;51.704;5.146;2023-04-25T16:04:37;6.90;;;1.42;;
55483;SDS011;41345;51.704;5.146;2023-04-25T16:09:38;5.72;;;1.30;;
55483;SDS011;41345;51.704;5.146;2023-04-25T16:14:38;8.90;;;1.38;;
55483;SDS011;41345;51.704;5.146;2023-04-25T16:19:39;6.53;;;1.58;;
55483;SDS011;41345;51.704;5.146;2023-04-25T16:24:40;7.07;;;1.40;;
55483;SDS011;41345;51.704;5.146;2023-04-25T16:29:40;7.18;;;1.85;;
55483;SDS011;41345;51.704;5.146;2023-04-25T16:34:40;4.50;;;1.35;;
55483;SDS011;41345;51.704;5.146;2023-04-25T16:39:41;6.93;;;1.58;;
55483;SDS011;41345;51.704;5.146;2023-04-25T16:44:41;4.68;;;1.10;;
55483;SDS011;41345;51.704;5.146;2023-04-25T16:49:42;4.72;;;1.45;;
55483;SDS011;41345;51.704;5.146;2023-04-25T16:54:42;7.78;;;1.58;;
55483;SDS011;41345;51.704;5.146;2023-04-25T16:59:42;8.75;;;2.20;;
55483;SDS011;41345;51.704;5.146;2023-04-25T17:04:43;11.20;;;1.83;;
55483;SDS011;41345;51.704;5.146;2023-04-25T17:09:43;7.07;;;1.80;;
55483;SDS011;41345;51.704;5.146;2023-04-25T17:14:43;7.45;;;1.52;;
55483;SDS011;41345;51.704;5.146;2023-04-25T17:19:45;8.52;;;1.63;;
55483;SDS011;41345;51.704;5.146;2023-04-25T17:24:46;9.48;;;1.70;;
55483;SDS011;41345;51.704;5.146;2023-04-25T17:29:46;5.37;;;1.50;;
55483;SDS011;41345;51.704;5.146;2023-04-25T17:34:46;10.50;;;1.55;;
55483;SDS011;41345;51.704;5.146;2023-04-25T17:39:47;6.95;;;1.35;;
55483;SDS011;41345;51.704;5.146;2023-04-25T17:44:47;8.85;;;1.42;;
55483;SDS011;41345;51.704;5.146;2023-04-25T17:49:48;7.50;;;1.33;;
55483;SDS011;41345;51.704;5.146;2023-04-25T17:54:48;7.32;;;1.48;;
55483;SDS011;41345;51.704;5.146;2023-04-25T17:59:48;9.38;;;1.73;;
55483;SDS011;41345;51.704;5.146;2023-04-25T18:04:48;9.02;;;1.67;;
55483;SDS011;41345;51.704;5.146;2023-04-25T18:09:49;5.70;;;1.53;;
55483;SDS011;41345;51.704;5.146;2023-04-25T18:14:49;9.10;;;1.58;;
55483;SDS011;41345;51.704;5.146;2023-04-25T18:19:50;7.68;;;1.42;;
55483;SDS011;41345;51.704;5.146;2023-04-25T18:24:50;8.13;;;1.67;;
55483;SDS011;41345;51.704;5.146;2023-04-25T18:29:50;6.43;;;1.60;;
55483;SDS011;41345;51.704;5.146;2023-04-25T18:34:51;5.67;;;1.57;;
55483;SDS011;41345;51.704;5.146;2023-04-25T18:39:51;9.70;;;2.13;;
55483;SDS011;41345;51.704;5.146;2023-04-25T18:44:51;10.00;;;1.98;;
55483;SDS011;41345;51.704;5.146;2023-04-25T18:49:52;8.20;;;1.88;;
55483;SDS011;41345;51.704;5.146;2023-04-25T18:54:52;12.17;;;2.50;;
55483;SDS011;41345;51.704;5.146;2023-04-25T18:59:52;10.25;;;2.10;;
55483;SDS011;41345;51.704;5.146;2023-04-25T19:04:53;7.57;;;1.80;;
55483;SDS011;41345;51.704;5.146;2023-04-25T19:09:53;6.83;;;2.10;;
55483;SDS011;41345;51.704;5.146;2023-04-25T19:14:53;7.82;;;2.05;;
55483;SDS011;41345;51.704;5.146;2023-04-25T19:19:54;12.13;;;2.40;;
55483;SDS011;41345;51.704;5.146;2023-04-25T19:24:55;12.10;;;2.58;;
55483;SDS011;41345;51.704;5.146;2023-04-25T19:29:57;5.75;;;2.88;;
55483;SDS011;41345;51.704;5.146;2023-04-25T19:35:06;8.38;;;3.17;;
55483;SDS011;41345;51.704;5.146;2023-04-25T19:40:07;7.03;;;3.00;;
55483;SDS011;41345;51.704;5.146;2023-04-25T19:45:08;9.38;;;4.00;;
55483;SDS011;41345;51.704;5.146;2023-04-25T19:50:09;13.07;;;3.88;;
55483;SDS011;41345;51.704;5.146;2023-04-25T19:55:09;8.65;;;4.13;;
55483;SDS011;41345;51.704;5.146;2023-04-25T20:00:11;8.17;;;3.97;;
55483;SDS011;41345;51.704;5.146;2023-04-25T20:05:13;9.77;;;5.57;;
55483;SDS011;41345;51.704;5.146;2023-04-25T20:10:13;7.95;;;5.43;;
55483;SDS011;41345;51.704;5.146;2023-04-25T20:15:16;10.43;;;6.85;;
55483;SDS011;41345;51.704;5.146;2023-04-25T20:20:16;9.88;;;5.68;;
55483;SDS011;41345;51.704;5.146;2023-04-25T20:25:17;11.00;;;6.60;;
55483;SDS011;41345;51.704;5.146;2023-04-25T20:30:18;13.68;;;7.95;;
55483;SDS011;41345;51.704;5.146;2023-04-25T20:35:18;11.90;;;8.10;;
55483;SDS011;41345;51.704;5.146;2023-04-25T20:40:21;12.88;;;6.32;;
55483;SDS011;41345;51.704;5.146;2023-04-25T20:45:22;11.02;;;6.55;;
55483;SDS011;41345;51.704;5.146;2023-04-25T20:50:23;13.52;;;5.50;;
55483;SDS011;41345;51.704;5.146;2023-04-25T20:55:23;8.10;;;5.47;;
55483;SDS011;41345;51.704;5.146;2023-04-25T21:00:24;14.25;;;10.02;;
55483;SDS011;41345;51.704;5.146;2023-04-25T21:05:28;18.27;;;14.93;;
55483;SDS011;41345;51.704;5.146;2023-04-25T21:10:28;14.80;;;11.68;;
55483;SDS011;41345;51.704;5.146;2023-04-25T21:15:29;19.23;;;17.10;;
55483;SDS011;41345;51.704;5.146;2023-04-25T21:20:29;18.35;;;16.58;;
55483;SDS011;41345;51.704;5.146;2023-04-25T21:25:29;17.53;;;15.63;;
55483;SDS011;41345;51.704;5.146;2023-04-25T21:30:30;15.88;;;14.38;;
55483;SDS011;41345;51.704;5.146;2023-04-25T21:35:30;16.23;;;12.98;;
55483;SDS011;41345;51.704;5.146;2023-04-25T21:40:31;15.32;;;13.35;;
55483;SDS011;41345;51.704;5.146;2023-04-25T21:45:31;9.68;;;8.00;;
55483;SDS011;41345;51.704;5.146;2023-04-25T21:50:32;20.52;;;18.63;;
55483;SDS011;41345;51.704;5.146;2023-04-25T21:55:32;28.90;;;26.45;;
55483;SDS011;41345;51.704;5.146;2023-04-25T22:00:32;28.33;;;25.95;;
55483;SDS011;41345;51.704;5.146;2023-04-25T22:05:33;16.33;;;14.82;;
55483;SDS011;41345;51.704;5.146;2023-04-25T22:10:34;38.42;;;36.30;;
55483;SDS011;41345;51.704;5.146;2023-04-25T22:15:34;41.90;;;39.10;;
55483;SDS011;41345;51.704;5.146;2023-04-25T22:20:35;45.20;;;42.22;;
55483;SDS011;41345;51.704;5.146;2023-04-25T22:25:35;44.85;;;42.13;;
55483;SDS011;41345;51.704;5.146;2023-04-25T22:30:36;29.42;;;27.27;;
55483;SDS011;41345;51.704;5.146;2023-04-25T22:35:36;32.80;;;30.23;;
55483;SDS011;41345;51.704;5.146;2023-04-25T22:40:37;29.77;;;27.87;;
55483;SDS011;41345;51.704;5.146;2023-04-25T22:45:37;27.35;;;25.40;;
55483;SDS011;41345;51.704;5.146;2023-04-25T22:50:37;41.65;;;39.20;;
55483;SDS011;41345;51.704;5.146;2023-04-25T22:55:39;24.00;;;22.10;;
55483;SDS011;41345;51.704;5.146;2023-04-25T23:00:39;21.27;;;19.50;;
55483;SDS011;41345;51.704;5.146;2023-04-25T23:05:40;22.13;;;20.33;;
55483;SDS011;41345;51.704;5.146;2023-04-25T23:10:40;28.17;;;26.10;;
55483;SDS011;41345;51.704;5.146;2023-04-25T23:15:41;36.30;;;33.83;;
55483;SDS011;41345;51.704;5.146;2023-04-25T23:20:41;39.35;;;36.58;;
55483;SDS011;41345;51.704;5.146;2023-04-25T23:25:41;41.33;;;38.72;;
55483;SDS011;41345;51.704;5.146;2023-04-25T23:30:42;36.65;;;34.00;;
55483;SDS011;41345;51.704;5.146;2023-04-25T23:35:42;40.97;;;38.08;;
55483;SDS011;41345;51.704;5.146;2023-04-25T23:40:43;22.90;;;21.00;;
55483;SDS011;41345;51.704;5.146;2023-04-25T23:45:43;25.15;;;23.48;;
55483;SDS011;41345;51.704;5.146;2023-04-25T23:50:45;41.15;;;38.78;;
55483;SDS011;41345;51.704;5.146;2023-04-25T23:55:45;40.25;;;38.05;;
